Time;durP1;ratioP1;P1;durP2;ratioP2;P2;SDS_P1;SDS_P2;PMS_P1;PMS_P2;Temp;Humidity;BMP_temperature;BMP_pressure;BME280_temperature;BME280_humidity;BME280_pressure;Samples;Min_cycle;Max_cycle;Signal;HPM_P1;HPM_P2
2022/11/24 00:00:05;;;;;;;76.43;34.65;;;;;;;;;;1033884;28;20026;-75
2022/11/24 00:00:36;;;;;;;76.47;34.78;;;;;;;;;;1037799;28;20475;-75
2022/11/24 00:01:07;;;;;;;75.32;33.85;;;;;;;;;;1037715;28;20446;-75
2022/11/24 00:01:38;;;;;;;74.53;33.38;;;;;;;;;;1033696;28;20022;-75
2022/11/24 00:02:09;;;;;;;81.32;35.70;;;;;;;;;;1029414;28;20023;-75
2022/11/24 00:02:39;;;;;;;88.15;37.53;;;;;;;;;;1030845;28;20015;-75
2022/11/24 00:03:10;;;;;;;72.25;31.70;;;;;;;;;;1033795;28;20014;-75
2022/11/24 00:03:41;;;;;;;64.32;31.77;;;;;;;;;;1038854;28;20464;-75
2022/11/24 00:04:12;;;;;;;77.65;34.47;;;;;;;;;;1037624;28;20034;-75
2022/11/24 00:04:42;;;;;;;80.90;34.33;;;;;;;;;;1037569;28;20108;-75
2022/11/24 00:05:13;;;;;;;79.80;36.22;;;;;;;;;;1037357;28;20033;-75
2022/11/24 00:05:44;;;;;;;81.00;35.25;;;;;;;;;;1036488;28;20057;-75
2022/11/24 00:06:15;;;;;;;74.63;32.75;;;;;;;;;;1036037;28;20033;-75
2022/11/24 00:06:45;;;;;;;81.28;36.10;;;;;;;;;;1036341;28;20056;-75
2022/11/24 00:07:16;;;;;;;83.88;34.08;;;;;;;;;;1037100;28;20017;-75
2022/11/24 00:07:47;;;;;;;87.22;36.35;;;;;;;;;;1033835;28;20116;-75
2022/11/24 00:08:17;;;;;;;71.68;35.22;;;;;;;;;;1029834;28;20475;-75
2022/11/24 00:08:48;;;;;;;75.50;34.00;;;;;;;;;;1028555;28;20071;-75
2022/11/24 00:09:19;;;;;;;76.10;36.75;;;;;;;;;;1033434;28;20078;-75
2022/11/24 00:09:49;;;;;;;71.57;34.10;;;;;;;;;;1037831;28;20067;-75
2022/11/24 00:10:20;;;;;;;76.50;34.60;;;;;;;;;;1036713;28;20025;-75
2022/11/24 00:10:50;;;;;;;89.15;36.10;;;;;;;;;;1036007;28;20630;-75
2022/11/24 00:11:22;;;;;;;68.82;33.90;;;;;;;;;;1037635;28;20022;-75
2022/11/24 00:11:53;;;;;;;66.43;32.78;;;;;;;;;;1037988;28;20057;-75
2022/11/24 00:12:23;;;;;;;70.75;31.77;;;;;;;;;;1038346;28;20009;-75
2022/11/24 00:12:54;;;;;;;63.45;32.92;;;;;;;;;;1037305;28;20026;-75
2022/11/24 00:13:25;;;;;;;72.18;33.55;;;;;;;;;;1036415;28;20375;-75
2022/11/24 00:13:56;;;;;;;73.82;35.97;;;;;;;;;;1037819;28;20030;-75
2022/11/24 00:14:26;;;;;;;79.10;36.13;;;;;;;;;;1037610;28;20418;-75
2022/11/24 00:14:57;;;;;;;75.82;34.33;;;;;;;;;;1037448;28;20024;-75
2022/11/24 00:15:28;;;;;;;84.50;32.60;;;;;;;;;;1036533;28;20022;-75
2022/11/24 00:16:05;;;;;;;71.40;32.72;;;;;;;;;;1037179;28;20057;-75
2022/11/24 00:16:37;;;;;;;71.50;32.60;;;;;;;;;;1036791;28;20057;-75
2022/11/24 00:17:08;;;;;;;80.97;35.28;;;;;;;;;;1034802;28;20033;-75
2022/11/24 00:17:38;;;;;;;77.60;34.35;;;;;;;;;;1032039;28;20164;-75
2022/11/24 00:18:09;;;;;;;70.70;32.85;;;;;;;;;;1031853;28;20022;-75
2022/11/24 00:18:40;;;;;;;88.75;32.05;;;;;;;;;;1036131;28;20088;-75
2022/11/24 00:19:11;;;;;;;81.45;33.08;;;;;;;;;;1035917;28;20168;-75
2022/11/24 00:19:41;;;;;;;70.57;33.20;;;;;;;;;;1036967;28;20033;-75
2022/11/24 00:20:12;;;;;;;62.90;29.00;;;;;;;;;;1038005;28;20105;-75
2022/11/24 00:20:50;;;;;;;62.13;28.13;;;;;;;;;;1036803;28;20064;-75
2022/11/24 00:21:21;;;;;;;72.47;31.80;;;;;;;;;;1037474;28;21298;-75
2022/11/24 00:21:52;;;;;;;71.10;30.98;;;;;;;;;;1036800;28;20037;-75
2022/11/24 00:22:22;;;;;;;66.25;29.75;;;;;;;;;;1037661;28;20036;-75
2022/11/24 00:22:53;;;;;;;65.72;29.23;;;;;;;;;;1037937;28;20125;-75
2022/11/24 00:23:23;;;;;;;72.68;30.50;;;;;;;;;;1037780;28;20029;-75
2022/11/24 00:23:54;;;;;;;68.22;30.67;;;;;;;;;;1036112;28;20025;-75
2022/11/24 00:24:25;;;;;;;67.85;32.47;;;;;;;;;;1037242;28;20025;-75
2022/11/24 00:24:56;;;;;;;68.40;32.35;;;;;;;;;;1036097;28;20026;-75
2022/11/24 00:25:26;;;;;;;74.95;32.45;;;;;;;;;;1036030;28;20026;-75
2022/11/24 00:26:17;;;;;;;86.47;32.60;;;;;;;;;;1036372;28;20521;-75
2022/11/24 00:26:48;;;;;;;79.85;31.30;;;;;;;;;;1036385;28;20425;-75
2022/11/24 00:27:18;;;;;;;65.32;33.35;;;;;;;;;;1036512;28;20021;-75
2022/11/24 00:27:49;;;;;;;85.18;36.53;;;;;;;;;;1036683;28;20451;-75
2022/11/24 00:28:19;;;;;;;70.55;36.00;;;;;;;;;;1032945;28;20026;-75
2022/11/24 00:28:51;;;;;;;91.88;39.00;;;;;;;;;;1029663;28;20494;-75
2022/11/24 00:29:21;;;;;;;79.15;34.60;;;;;;;;;;1029523;28;20027;-75
2022/11/24 00:29:52;;;;;;;75.07;32.20;;;;;;;;;;1029953;28;20022;-75
2022/11/24 00:30:23;;;;;;;76.50;31.42;;;;;;;;;;1029914;28;20027;-75
2022/11/24 00:30:53;;;;;;;68.20;34.95;;;;;;;;;;1032411;28;20478;-75
2022/11/24 00:31:25;;;;;;;76.68;40.17;;;;;;;;;;1036493;28;20025;-75
2022/11/24 00:31:56;;;;;;;78.68;32.90;;;;;;;;;;1036241;28;20026;-75
2022/11/24 00:32:28;;;;;;;81.07;33.15;;;;;;;;;;1036642;28;20486;-75
2022/11/24 00:32:58;;;;;;;73.18;31.23;;;;;;;;;;1036116;28;20478;-75
2022/11/24 00:33:29;;;;;;;56.15;32.03;;;;;;;;;;1037932;28;20104;-75
2022/11/24 00:34:01;;;;;;;60.08;31.23;;;;;;;;;;1037895;28;20033;-75
2022/11/24 00:34:32;;;;;;;58.17;28.10;;;;;;;;;;1036197;28;20088;-75
2022/11/24 00:35:03;;;;;;;66.53;29.90;;;;;;;;;;1035318;28;20034;-75
2022/11/24 00:35:33;;;;;;;74.63;32.88;;;;;;;;;;1037740;28;20076;-75
2022/11/24 00:36:04;;;;;;;76.93;34.47;;;;;;;;;;1037578;28;20607;-75
2022/11/24 00:36:35;;;;;;;70.57;30.75;;;;;;;;;;1038068;28;20061;-75
2022/11/24 00:37:06;;;;;;;81.72;34.60;;;;;;;;;;1031653;28;20588;-75
2022/11/24 00:37:36;;;;;;;74.38;32.55;;;;;;;;;;1032036;28;20034;-75
2022/11/24 00:38:07;;;;;;;81.30;33.05;;;;;;;;;;1031875;28;20033;-75
2022/11/24 00:38:38;;;;;;;67.22;32.30;;;;;;;;;;1032142;28;20577;-75
2022/11/24 00:39:12;;;;;;;71.60;35.42;;;;;;;;;;1032051;28;20081;-75
2022/11/24 00:39:43;;;;;;;69.07;29.98;;;;;;;;;;1037256;28;20389;-75
2022/11/24 00:40:14;;;;;;;59.00;29.13;;;;;;;;;;1034046;28;20030;-75
2022/11/24 00:40:44;;;;;;;78.13;29.70;;;;;;;;;;1035634;28;20089;-75
2022/11/24 00:41:15;;;;;;;78.68;29.63;;;;;;;;;;1037343;28;20033;-75
2022/11/24 00:41:45;;;;;;;65.50;27.58;;;;;;;;;;1037208;28;20033;-75
2022/11/24 00:42:17;;;;;;;67.25;31.67;;;;;;;;;;1032637;28;20022;-75
2022/11/24 00:42:48;;;;;;;71.82;29.23;;;;;;;;;;1034802;28;20026;-75
2022/11/24 00:43:18;;;;;;;62.25;29.75;;;;;;;;;;1035254;28;20021;-75
2022/11/24 00:43:49;;;;;;;64.28;31.38;;;;;;;;;;1033093;28;20495;-75
2022/11/24 00:44:20;;;;;;;77.30;29.35;;;;;;;;;;1034572;28;20506;-75
2022/11/24 00:44:50;;;;;;;83.70;29.25;;;;;;;;;;1034829;28;20053;-75
2022/11/24 00:45:21;;;;;;;75.38;31.05;;;;;;;;;;1035301;28;20501;-75
2022/11/24 00:45:52;;;;;;;67.80;28.48;;;;;;;;;;1028824;28;20506;-75
2022/11/24 00:46:23;;;;;;;63.38;30.88;;;;;;;;;;1033970;28;20029;-75
2022/11/24 00:46:53;;;;;;;72.57;32.17;;;;;;;;;;1037796;28;20124;-75
2022/11/24 00:47:24;;;;;;;61.05;29.05;;;;;;;;;;1038025;28;20469;-75
2022/11/24 00:47:54;;;;;;;68.47;32.00;;;;;;;;;;1037096;28;20029;-75
2022/11/24 00:48:25;;;;;;;69.30;28.27;;;;;;;;;;1037369;28;20049;-75
2022/11/24 00:48:56;;;;;;;83.18;32.13;;;;;;;;;;1036722;28;20086;-75
2022/11/24 00:49:27;;;;;;;74.25;28.77;;;;;;;;;;1036950;28;20033;-75
2022/11/24 00:49:57;;;;;;;60.90;29.85;;;;;;;;;;1036255;28;20052;-75
2022/11/24 00:50:28;;;;;;;69.88;27.50;;;;;;;;;;1035990;28;20417;-75
2022/11/24 00:51:00;;;;;;;64.32;29.52;;;;;;;;;;1036531;28;20026;-75
2022/11/24 00:51:30;;;;;;;70.13;26.77;;;;;;;;;;1037732;28;20084;-75
2022/11/24 00:52:01;;;;;;;77.38;30.83;;;;;;;;;;1036375;28;20120;-75
2022/11/24 00:52:32;;;;;;;70.00;29.55;;;;;;;;;;1036310;28;20030;-75
2022/11/24 00:53:02;;;;;;;67.78;26.60;;;;;;;;;;1037095;28;20026;-75
2022/11/24 00:53:33;;;;;;;72.82;27.08;;;;;;;;;;1036355;28;20052;-75
2022/11/24 00:54:05;;;;;;;61.83;28.02;;;;;;;;;;1035682;28;20014;-75
2022/11/24 00:54:35;;;;;;;65.63;27.50;;;;;;;;;;1033585;28;20150;-75
2022/11/24 00:55:06;;;;;;;58.70;25.98;;;;;;;;;;1032604;28;20025;-75
2022/11/24 00:55:37;;;;;;;56.38;24.75;;;;;;;;;;1037007;28;20026;-75
2022/11/24 00:56:08;;;;;;;52.50;25.17;;;;;;;;;;1036965;28;20053;-75
2022/11/24 00:56:38;;;;;;;53.85;24.73;;;;;;;;;;1036489;28;20402;-75
2022/11/24 00:57:09;;;;;;;63.42;25.77;;;;;;;;;;1036230;28;20033;-75
2022/11/24 00:57:40;;;;;;;77.53;28.42;;;;;;;;;;1036318;28;20109;-75
2022/11/24 00:58:10;;;;;;;58.67;25.20;;;;;;;;;;1035628;28;20025;-75
2022/11/24 00:58:41;;;;;;;66.25;25.13;;;;;;;;;;1030654;28;20018;-75
2022/11/24 00:59:11;;;;;;;70.30;26.55;;;;;;;;;;1030417;28;20042;-75
2022/11/24 00:59:42;;;;;;;57.72;24.30;;;;;;;;;;1030420;28;20050;-75
2022/11/24 01:00:13;;;;;;;73.38;31.42;;;;;;;;;;1029695;28;20027;-75
2022/11/24 01:00:44;;;;;;;122.00;51.70;;;;;;;;;;1030615;28;20498;-75
2022/11/24 01:01:16;;;;;;;81.15;37.88;;;;;;;;;;1035818;28;20037;-75
2022/11/24 01:01:46;;;;;;;72.10;32.03;;;;;;;;;;1035764;28;20108;-75
2022/11/24 01:02:17;;;;;;;77.28;37.40;;;;;;;;;;1039239;28;20026;-75
2022/11/24 01:02:47;;;;;;;84.28;36.88;;;;;;;;;;1037848;28;20112;-75
2022/11/24 01:03:19;;;;;;;79.70;35.08;;;;;;;;;;1038404;28;20018;-75
2022/11/24 01:03:50;;;;;;;90.60;37.20;;;;;;;;;;1036323;28;20025;-75
2022/11/24 01:04:21;;;;;;;86.05;35.70;;;;;;;;;;1036010;28;20025;-75
2022/11/24 01:04:51;;;;;;;73.38;35.70;;;;;;;;;;1035999;28;20026;-75
2022/11/24 01:05:22;;;;;;;89.10;38.70;;;;;;;;;;1037413;28;20044;-76
2022/11/24 01:05:53;;;;;;;86.50;38.95;;;;;;;;;;1039092;28;20025;-76
2022/11/24 01:06:24;;;;;;;83.85;40.33;;;;;;;;;;1039124;28;20056;-76
2022/11/24 01:06:55;;;;;;;87.00;38.78;;;;;;;;;;1037778;28;20023;-76
2022/11/24 01:07:25;;;;;;;84.95;34.72;;;;;;;;;;1035049;28;20050;-76
2022/11/24 01:07:56;;;;;;;79.80;36.33;;;;;;;;;;1036871;28;20028;-76
2022/11/24 01:08:27;;;;;;;75.90;33.85;;;;;;;;;;1033251;28;20105;-76
2022/11/24 01:08:57;;;;;;;84.88;37.50;;;;;;;;;;1032836;28;20469;-76
2022/11/24 01:09:28;;;;;;;75.45;35.47;;;;;;;;;;1038797;28;20096;-77
2022/11/24 01:09:59;;;;;;;78.20;38.08;;;;;;;;;;1037449;28;20089;-77
2022/11/24 01:10:29;;;;;;;81.15;37.13;;;;;;;;;;1037576;28;20025;-77
2022/11/24 01:11:07;;;;;;;79.88;36.33;;;;;;;;;;1036633;28;20014;-77
2022/11/24 01:12:27;;;;;;;82.90;37.92;;;;;;;;;;1036637;28;20022;-77
2022/11/24 01:12:58;;;;;;;72.03;33.60;;;;;;;;;;1037554;28;20068;-77
2022/11/24 01:13:29;;;;;;;60.58;29.55;;;;;;;;;;1038916;28;20024;-77
2022/11/24 01:13:59;;;;;;;80.25;36.20;;;;;;;;;;1037325;28;20037;-76
2022/11/24 01:14:31;;;;;;;96.25;39.92;;;;;;;;;;1036125;28;20057;-76
2022/11/24 01:15:02;;;;;;;94.72;41.15;;;;;;;;;;1037386;28;20141;-76
2022/11/24 01:15:34;;;;;;;77.82;36.20;;;;;;;;;;1039131;28;20026;-76
2022/11/24 01:16:04;;;;;;;83.82;34.80;;;;;;;;;;1036780;28;20501;-76
2022/11/24 01:16:37;;;;;;;83.30;35.15;;;;;;;;;;1037050;28;20022;-76
2022/11/24 01:17:08;;;;;;;85.10;38.63;;;;;;;;;;1038925;28;20374;-76
2022/11/24 01:17:39;;;;;;;84.80;41.60;;;;;;;;;;1035677;28;20057;-76
2022/11/24 01:18:09;;;;;;;108.35;42.33;;;;;;;;;;1036873;28;20068;-76
2022/11/24 01:18:40;;;;;;;91.63;41.22;;;;;;;;;;1037630;28;20106;-76
2022/11/24 01:19:10;;;;;;;88.47;38.95;;;;;;;;;;1038269;28;20022;-76
2022/11/24 01:19:41;;;;;;;85.15;41.00;;;;;;;;;;1036551;28;20528;-76
2022/11/24 01:20:12;;;;;;;83.63;38.03;;;;;;;;;;1035907;28;20528;-76
2022/11/24 01:20:43;;;;;;;91.03;41.25;;;;;;;;;;1033621;28;20064;-76
2022/11/24 01:21:13;;;;;;;74.60;35.40;;;;;;;;;;1031704;28;21129;-77
2022/11/24 01:21:44;;;;;;;76.50;33.15;;;;;;;;;;1032914;28;20058;-77
2022/11/24 01:22:15;;;;;;;71.22;34.15;;;;;;;;;;1033197;28;20116;-77
2022/11/24 01:22:47;;;;;;;78.78;32.90;;;;;;;;;;1033106;28;20117;-77
2022/11/24 01:23:17;;;;;;;72.90;33.42;;;;;;;;;;1032054;28;20014;-77
2022/11/24 01:23:48;;;;;;;68.57;29.17;;;;;;;;;;1030713;28;20027;-76
2022/11/24 01:24:19;;;;;;;53.15;28.55;;;;;;;;;;1028980;28;20030;-76
2022/11/24 01:24:49;;;;;;;58.13;27.45;;;;;;;;;;1032451;28;20462;-76
2022/11/24 01:25:20;;;;;;;79.43;32.00;;;;;;;;;;1031400;28;20450;-76
2022/11/24 01:25:51;;;;;;;68.25;30.90;;;;;;;;;;1036157;28;20195;-76
2022/11/24 01:26:22;;;;;;;72.70;31.33;;;;;;;;;;1039648;28;20022;-77
2022/11/24 01:26:53;;;;;;;70.43;31.02;;;;;;;;;;1034934;28;20037;-77
2022/11/24 01:27:23;;;;;;;57.30;28.85;;;;;;;;;;1034870;28;20030;-76
2022/11/24 01:27:54;;;;;;;46.95;25.00;;;;;;;;;;1035938;28;20033;-76
2022/11/24 01:28:25;;;;;;;49.53;23.95;;;;;;;;;;1033373;28;20113;-76
2022/11/24 01:28:56;;;;;;;48.10;23.02;;;;;;;;;;1033557;28;20034;-76
2022/11/24 01:29:27;;;;;;;81.85;35.00;;;;;;;;;;1036004;28;20041;-76
2022/11/24 01:29:57;;;;;;;63.72;33.03;;;;;;;;;;1037460;28;20112;-76
2022/11/24 01:30:28;;;;;;;63.47;32.50;;;;;;;;;;1039686;28;20026;-76
2022/11/24 01:31:03;;;;;;;63.17;30.05;;;;;;;;;;1039505;28;20093;-76
2022/11/24 01:31:35;;;;;;;60.42;27.63;;;;;;;;;;1036703;28;20033;-76
2022/11/24 01:32:06;;;;;;;62.45;27.27;;;;;;;;;;1036989;28;20028;-76
2022/11/24 01:32:37;;;;;;;56.33;27.40;;;;;;;;;;1036050;28;20053;-76
2022/11/24 01:33:07;;;;;;;67.22;29.70;;;;;;;;;;1035988;28;20041;-76
2022/11/24 01:33:38;;;;;;;71.60;30.83;;;;;;;;;;1037642;28;20089;-76
2022/11/24 01:34:09;;;;;;;76.28;30.65;;;;;;;;;;1035894;28;20036;-76
2022/11/24 01:34:39;;;;;;;60.78;29.45;;;;;;;;;;1038126;28;20022;-76
2022/11/24 01:35:10;;;;;;;48.25;23.27;;;;;;;;;;1037111;28;20022;-76
2022/11/24 01:35:40;;;;;;;51.70;27.58;;;;;;;;;;1036195;28;20025;-76
2022/11/24 01:36:11;;;;;;;53.38;26.33;;;;;;;;;;1031881;28;20092;-76
2022/11/24 01:36:42;;;;;;;61.78;26.35;;;;;;;;;;1032378;28;20030;-76
2022/11/24 01:37:13;;;;;;;64.75;37.13;;;;;;;;;;1031818;28;20030;-76
2022/11/24 01:37:43;;;;;;;64.05;35.55;;;;;;;;;;1032855;28;20022;-76
2022/11/24 01:38:14;;;;;;;61.35;31.48;;;;;;;;;;1027843;28;20149;-76
2022/11/24 01:38:45;;;;;;;68.38;36.90;;;;;;;;;;1030510;28;20018;-76
2022/11/24 01:39:15;;;;;;;61.20;34.40;;;;;;;;;;1035418;28;20036;-76
2022/11/24 01:39:46;;;;;;;61.85;34.25;;;;;;;;;;1036243;28;20022;-76
2022/11/24 01:40:17;;;;;;;61.45;35.22;;;;;;;;;;1035387;28;20022;-76
2022/11/24 01:40:47;;;;;;;67.72;35.45;;;;;;;;;;1035400;28;20021;-76
2022/11/24 01:41:22;;;;;;;62.30;33.85;;;;;;;;;;1035504;28;20105;-76
2022/11/24 01:41:53;;;;;;;68.60;32.47;;;;;;;;;;1035627;28;20084;-76
2022/11/24 01:42:24;;;;;;;71.20;32.70;;;;;;;;;;1036020;28;20029;-76
2022/11/24 01:42:54;;;;;;;67.70;32.67;;;;;;;;;;1036796;28;20030;-76
2022/11/24 01:43:25;;;;;;;67.80;32.22;;;;;;;;;;1035665;28;20057;-76
2022/11/24 01:43:56;;;;;;;60.00;28.20;;;;;;;;;;1034843;28;20080;-76
2022/11/24 01:44:28;;;;;;;60.28;31.15;;;;;;;;;;1037649;28;20061;-76
2022/11/24 01:45:17;;;;;;;55.22;30.02;;;;;;;;;;1035263;28;20060;-76
2022/11/24 01:45:49;;;;;;;51.28;27.50;;;;;;;;;;1035998;28;20022;-76
2022/11/24 01:46:20;;;;;;;63.20;29.55;;;;;;;;;;1035241;28;20022;-76
2022/11/24 01:46:55;;;;;;;60.13;27.85;;;;;;;;;;1035554;28;20026;-76
2022/11/24 01:47:41;;;;;;;55.78;28.90;;;;;;;;;;1036929;28;20022;-77
2022/11/24 01:48:35;;;;;;;64.05;28.17;;;;;;;;;;1035576;28;20017;-77
2022/11/24 01:49:08;;;;;;;61.78;27.60;;;;;;;;;;1036101;28;20022;-76
2022/11/24 01:49:41;;;;;;;63.85;30.52;;;;;;;;;;1035814;28;20022;-76
2022/11/24 01:50:15;;;;;;;64.90;28.83;;;;;;;;;;1036019;28;20057;-76
2022/11/24 01:50:47;;;;;;;59.50;28.75;;;;;;;;;;1038136;28;20032;-76
2022/11/24 01:51:25;;;;;;;65.85;30.67;;;;;;;;;;1037494;28;20089;-76
2022/11/24 01:52:03;;;;;;;70.43;31.67;;;;;;;;;;1036793;28;20101;-77
2022/11/24 01:52:40;;;;;;;71.45;29.92;;;;;;;;;;1037793;28;20017;-76
2022/11/24 01:53:12;;;;;;;73.10;30.70;;;;;;;;;;1035868;28;20032;-76
2022/11/24 01:53:44;;;;;;;72.60;32.17;;;;;;;;;;1037565;28;20486;-76
2022/11/24 01:54:19;;;;;;;73.72;36.53;;;;;;;;;;1036527;28;20496;-76
2022/11/24 01:54:54;;;;;;;73.68;34.25;;;;;;;;;;1036124;28;20038;-76
2022/11/24 01:55:26;;;;;;;67.70;35.28;;;;;;;;;;1035443;28;20026;-76
2022/11/24 01:55:57;;;;;;;90.97;36.58;;;;;;;;;;1034014;28;20520;-76
2022/11/24 01:56:29;;;;;;;76.93;35.22;;;;;;;;;;1034523;28;20097;-76
2022/11/24 01:57:04;;;;;;;72.40;36.83;;;;;;;;;;1036744;28;20132;-76
2022/11/24 01:57:37;;;;;;;64.32;31.63;;;;;;;;;;1036942;28;20053;-76
2022/11/24 01:58:11;;;;;;;73.22;35.30;;;;;;;;;;1035389;28;20025;-76
2022/11/24 01:58:42;;;;;;;67.80;37.33;;;;;;;;;;1035647;28;20120;-76
2022/11/24 01:59:14;;;;;;;76.75;37.42;;;;;;;;;;1029690;28;20044;-76
2022/11/24 01:59:47;;;;;;;80.70;40.35;;;;;;;;;;1032068;28;20041;-76
2022/11/24 02:00:18;;;;;;;82.40;41.30;;;;;;;;;;1030118;28;20058;-77
2022/11/24 02:00:49;;;;;;;81.30;40.22;;;;;;;;;;1029188;28;20030;-77
2022/11/24 02:01:19;;;;;;;82.68;39.25;;;;;;;;;;1028276;28;20696;-77
2022/11/24 02:01:50;;;;;;;80.57;40.83;;;;;;;;;;1031078;28;20060;-77
2022/11/24 02:02:21;;;;;;;73.18;35.95;;;;;;;;;;1036811;28;20022;-77
2022/11/24 02:02:52;;;;;;;76.28;38.88;;;;;;;;;;1036691;28;20045;-77
2022/11/24 02:03:25;;;;;;;77.53;36.47;;;;;;;;;;1034614;28;20022;-76
2022/11/24 02:03:56;;;;;;;70.88;39.55;;;;;;;;;;1036833;28;20022;-76
2022/11/24 02:04:29;;;;;;;80.28;36.05;;;;;;;;;;1034060;28;20026;-76
2022/11/24 02:05:06;;;;;;;82.78;34.78;;;;;;;;;;1032570;28;20022;-76
2022/11/24 02:05:37;;;;;;;71.40;32.67;;;;;;;;;;1031956;28;20033;-76
2022/11/24 02:06:12;;;;;;;66.25;29.25;;;;;;;;;;1032861;28;20057;-76
2022/11/24 02:06:43;;;;;;;60.95;25.52;;;;;;;;;;1035957;28;20022;-76
2022/11/24 02:07:14;;;;;;;71.28;28.92;;;;;;;;;;1035638;28;20029;-76
2022/11/24 02:07:45;;;;;;;84.05;33.83;;;;;;;;;;1036311;28;20049;-76
2022/11/24 02:08:27;;;;;;;81.65;36.33;;;;;;;;;;1036018;28;20096;-76
2022/11/24 02:09:07;;;;;;;85.55;35.78;;;;;;;;;;1036175;28;20032;-76
2022/11/24 02:09:45;;;;;;;76.60;34.60;;;;;;;;;;1035266;28;20022;-76
2022/11/24 02:10:16;;;;;;;80.35;37.08;;;;;;;;;;1037895;28;20548;-76
2022/11/24 02:10:47;;;;;;;75.00;36.78;;;;;;;;;;1036309;28;20025;-77
2022/11/24 02:11:18;;;;;;;78.68;33.95;;;;;;;;;;1035126;28;20029;-77
2022/11/24 02:11:49;;;;;;;75.88;34.40;;;;;;;;;;1036024;28;20500;-77
2022/11/24 02:12:20;;;;;;;79.13;37.38;;;;;;;;;;1036040;28;20022;-77
2022/11/24 02:12:54;;;;;;;70.60;35.10;;;;;;;;;;1037616;28;20456;-77
2022/11/24 02:13:24;;;;;;;81.10;36.13;;;;;;;;;;1035849;28;20072;-76
2022/11/24 02:13:56;;;;;;;82.43;35.13;;;;;;;;;;1033893;28;20014;-76
2022/11/24 02:14:26;;;;;;;69.95;33.70;;;;;;;;;;1035782;28;20029;-76
2022/11/24 02:14:57;;;;;;;84.68;37.53;;;;;;;;;;1036752;28;20017;-76
2022/11/24 02:15:28;;;;;;;84.10;38.97;;;;;;;;;;1035843;28;20052;-76
2022/11/24 02:15:59;;;;;;;120.25;47.78;;;;;;;;;;1037441;28;20017;-76
2022/11/24 02:16:31;;;;;;;125.18;51.83;;;;;;;;;;1032852;28;20027;-76
2022/11/24 02:17:01;;;;;;;126.28;51.65;;;;;;;;;;1032425;28;20028;-76
2022/11/24 02:17:32;;;;;;;100.72;46.28;;;;;;;;;;1032155;28;20022;-76
2022/11/24 02:18:03;;;;;;;109.03;46.08;;;;;;;;;;1034185;28;20025;-76
2022/11/24 02:18:33;;;;;;;108.28;49.40;;;;;;;;;;1038925;28;20095;-76
2022/11/24 02:19:10;;;;;;;108.10;48.40;;;;;;;;;;1039309;28;20024;-76
2022/11/24 02:19:51;;;;;;;130.73;51.63;;;;;;;;;;1036405;28;20097;-76
2022/11/24 02:20:22;;;;;;;115.18;51.58;;;;;;;;;;1034604;28;20026;-76
2022/11/24 02:20:53;;;;;;;107.68;53.17;;;;;;;;;;1035440;28;20018;-76
2022/11/24 02:21:23;;;;;;;114.40;47.20;;;;;;;;;;1034390;28;20060;-76
2022/11/24 02:21:54;;;;;;;124.53;53.05;;;;;;;;;;1034962;28;20436;-76
2022/11/24 02:22:31;;;;;;;126.43;53.38;;;;;;;;;;1034586;28;20040;-75
2022/11/24 02:23:20;;;;;;;123.57;55.10;;;;;;;;;;1034954;28;20083;-75
2022/11/24 02:24:05;;;;;;;112.85;52.70;;;;;;;;;;1035648;28;20033;-75
2022/11/24 02:24:36;;;;;;;132.07;55.70;;;;;;;;;;1035997;28;20536;-75
2022/11/24 02:25:15;;;;;;;129.35;58.83;;;;;;;;;;1036398;28;20087;-77
2022/11/24 02:26:04;;;;;;;115.22;52.10;;;;;;;;;;1036068;28;20022;-76
2022/11/24 02:26:35;;;;;;;109.10;49.55;;;;;;;;;;1032999;28;20033;-76
2022/11/24 02:27:05;;;;;;;125.70;56.85;;;;;;;;;;1031874;28;20037;-77
2022/11/24 02:27:36;;;;;;;137.07;53.60;;;;;;;;;;1033632;28;20165;-76
2022/11/24 02:28:09;;;;;;;125.85;54.10;;;;;;;;;;1035461;28;20084;-76
2022/11/24 02:28:40;;;;;;;121.35;53.92;;;;;;;;;;1037364;28;20032;-77
2022/11/24 02:29:11;;;;;;;120.43;51.53;;;;;;;;;;1036590;28;20429;-77
2022/11/24 02:29:42;;;;;;;130.82;53.33;;;;;;;;;;1035380;28;20496;-76
2022/11/24 02:30:12;;;;;;;102.22;46.25;;;;;;;;;;1035569;28;20026;-76
2022/11/24 02:30:43;;;;;;;109.18;50.10;;;;;;;;;;1036987;28;20033;-76
2022/11/24 02:31:14;;;;;;;110.82;54.63;;;;;;;;;;1035419;28;20117;-76
2022/11/24 02:31:47;;;;;;;121.93;50.88;;;;;;;;;;1036654;28;20038;-76
2022/11/24 02:32:18;;;;;;;124.75;49.95;;;;;;;;;;1034418;28;20079;-76
2022/11/24 02:32:49;;;;;;;114.65;48.90;;;;;;;;;;1030910;28;20076;-76
2022/11/24 02:33:20;;;;;;;111.43;47.03;;;;;;;;;;1027905;28;20026;-77
2022/11/24 02:33:51;;;;;;;105.10;49.28;;;;;;;;;;1030311;28;20455;-76
2022/11/24 02:34:22;;;;;;;101.68;43.78;;;;;;;;;;1032604;28;20085;-76
2022/11/24 02:34:59;;;;;;;101.50;46.15;;;;;;;;;;1036348;28;20112;-77
2022/11/24 02:35:30;;;;;;;119.90;49.33;;;;;;;;;;1033506;28;20061;-76
2022/11/24 02:36:01;;;;;;;101.78;48.15;;;;;;;;;;1031429;28;20085;-76
2022/11/24 02:36:32;;;;;;;110.75;51.28;;;;;;;;;;1035823;28;20355;-76
2022/11/24 02:37:02;;;;;;;115.72;51.45;;;;;;;;;;1036080;28;20028;-76
2022/11/24 02:37:33;;;;;;;114.93;56.65;;;;;;;;;;1035773;28;20068;-76
2022/11/24 02:38:04;;;;;;;115.18;55.40;;;;;;;;;;1035146;28;20037;-76
2022/11/24 02:38:35;;;;;;;115.70;54.45;;;;;;;;;;1036528;28;20018;-77
2022/11/24 02:39:12;;;;;;;111.25;53.08;;;;;;;;;;1035814;28;20053;-77
2022/11/24 02:39:42;;;;;;;111.18;51.45;;;;;;;;;;1037185;28;20026;-77
2022/11/24 02:40:14;;;;;;;95.82;49.95;;;;;;;;;;1031674;28;20041;-76
2022/11/24 02:40:47;;;;;;;115.32;58.90;;;;;;;;;;1026940;28;20030;-76
2022/11/24 02:41:19;;;;;;;126.68;56.00;;;;;;;;;;1030337;28;20078;-77
2022/11/24 02:41:55;;;;;;;119.57;58.00;;;;;;;;;;1027336;28;20019;-76
2022/11/24 02:42:28;;;;;;;135.80;56.00;;;;;;;;;;1036673;28;20579;-76
2022/11/24 02:43:03;;;;;;;117.78;54.38;;;;;;;;;;1035360;28;20591;-78
2022/11/24 02:43:45;;;;;;;131.45;59.58;;;;;;;;;;1030048;28;20116;-77
2022/11/24 02:44:18;;;;;;;123.65;57.15;;;;;;;;;;1034931;28;20030;-77
2022/11/24 02:44:53;;;;;;;130.10;58.88;;;;;;;;;;1036181;28;20044;-78
2022/11/24 02:45:26;;;;;;;133.00;60.45;;;;;;;;;;1033298;28;20032;-77
2022/11/24 02:45:56;;;;;;;135.65;63.60;;;;;;;;;;1027638;28;20080;-77
2022/11/24 02:46:29;;;;;;;117.50;58.17;;;;;;;;;;1028327;28;20117;-77
2022/11/24 02:47:05;;;;;;;114.78;49.38;;;;;;;;;;1030299;28;20465;-77
2022/11/24 02:47:35;;;;;;;98.22;45.30;;;;;;;;;;1031379;28;20482;-77
2022/11/24 02:48:06;;;;;;;112.53;48.78;;;;;;;;;;1037967;28;20018;-77
2022/11/24 02:48:37;;;;;;;124.28;53.92;;;;;;;;;;1035963;28;20036;-77
2022/11/24 02:49:08;;;;;;;108.70;54.13;;;;;;;;;;1036408;28;20014;-77
2022/11/24 02:49:39;;;;;;;118.18;56.38;;;;;;;;;;1035496;28;20482;-77
2022/11/24 02:50:10;;;;;;;113.95;56.28;;;;;;;;;;1035880;28;20044;-77
2022/11/24 02:50:40;;;;;;;125.45;56.55;;;;;;;;;;1035368;28;20018;-77
2022/11/24 02:51:11;;;;;;;113.38;54.78;;;;;;;;;;1035084;28;20058;-77
2022/11/24 02:51:43;;;;;;;127.15;60.22;;;;;;;;;;1036965;28;20034;-77
2022/11/24 02:52:14;;;;;;;113.05;55.05;;;;;;;;;;1035804;28;20033;-77
2022/11/24 02:52:45;;;;;;;104.72;53.05;;;;;;;;;;1036471;28;20022;-77
2022/11/24 02:53:16;;;;;;;120.50;55.97;;;;;;;;;;1035719;28;20484;-78
2022/11/24 02:53:46;;;;;;;144.23;55.08;;;;;;;;;;1035990;28;20433;-75
2022/11/24 02:54:18;;;;;;;113.05;51.92;;;;;;;;;;1033788;28;20066;-78
2022/11/24 02:54:50;;;;;;;114.03;53.42;;;;;;;;;;1032100;28;20537;-77
2022/11/24 02:55:26;;;;;;;115.53;57.95;;;;;;;;;;1029173;28;20023;-78
2022/11/24 02:55:57;;;;;;;108.43;54.78;;;;;;;;;;1028084;28;21524;-77
2022/11/24 02:56:28;;;;;;;113.65;52.42;;;;;;;;;;1030707;28;20030;-76
2022/11/24 02:56:59;;;;;;;117.35;54.30;;;;;;;;;;1032759;28;20046;-77
2022/11/24 02:57:30;;;;;;;113.18;49.67;;;;;;;;;;1037397;28;20030;-77
2022/11/24 02:58:01;;;;;;;109.68;46.50;;;;;;;;;;1035611;28;20029;-77
2022/11/24 02:58:31;;;;;;;100.53;47.20;;;;;;;;;;1034698;28;20064;-77
2022/11/24 02:59:02;;;;;;;117.53;46.83;;;;;;;;;;1034492;28;20576;-77
2022/11/24 02:59:35;;;;;;;103.13;45.13;;;;;;;;;;1034455;28;20057;-77
2022/11/24 03:00:06;;;;;;;102.20;45.95;;;;;;;;;;1035357;28;20049;-77
2022/11/24 03:00:37;;;;;;;102.20;44.25;;;;;;;;;;1037257;28;20045;-77
2022/11/24 03:01:08;;;;;;;80.28;39.50;;;;;;;;;;1036205;28;20042;-77
2022/11/24 03:01:38;;;;;;;93.70;41.00;;;;;;;;;;1033279;28;20037;-77
2022/11/24 03:02:09;;;;;;;94.07;39.50;;;;;;;;;;1035815;28;20029;-76
2022/11/24 03:02:40;;;;;;;92.85;36.60;;;;;;;;;;1039192;28;20025;-76
2022/11/24 03:03:11;;;;;;;102.93;42.50;;;;;;;;;;1035007;28;20452;-77
2022/11/24 03:03:41;;;;;;;110.47;52.33;;;;;;;;;;1035845;28;20025;-76
2022/11/24 03:04:12;;;;;;;111.90;50.15;;;;;;;;;;1035288;28;20033;-76
2022/11/24 03:04:44;;;;;;;113.07;47.90;;;;;;;;;;1035551;28;20509;-76
2022/11/24 03:05:15;;;;;;;100.20;50.53;;;;;;;;;;1035015;28;20029;-76